Time;durP1;ratioP1;P1;durP2;ratioP2;P2;SDS_P1;SDS_P2;PMS_P1;PMS_P2;Temp;Humidity;BMP_temperature;BMP_pressure;BME280_temperature;BME280_humidity;BME280_pressure;Samples;Min_cycle;Max_cycle;Signal;HPM_P1;HPM_P2
2021/04/18 00:04:27;;;;;;;13.02;7.35;;;;;;;6.90;59.91;101004.50;10307212;28;20239;-74
2021/04/18 00:09:28;;;;;;;11.73;7.10;;;;;;;6.99;59.92;100998.66;10312442;28;20231;-74
2021/04/18 00:14:31;;;;;;;12.55;7.20;;;;;;;7.08;59.57;100991.06;10312690;28;20237;-73
2021/04/18 00:19:34;;;;;;;13.82;7.68;;;;;;;7.14;59.44;100988.03;10311526;28;20238;-75
2021/04/18 00:24:37;;;;;;;12.18;7.30;;;;;;;7.21;59.34;100984.94;10326276;28;20828;-74
2021/04/18 00:29:39;;;;;;;16.05;7.60;;;;;;;7.13;59.29;100983.63;10309435;28;20231;-74
2021/04/18 00:34:41;;;;;;;13.93;7.50;;;;;;;7.10;59.34;100973.13;10311113;28;20242;-74
2021/04/18 00:39:45;;;;;;;16.40;7.47;;;;;;;6.89;60.06;100976.06;10311807;28;20738;-74
2021/04/18 00:44:49;;;;;;;12.57;7.65;;;;;;;6.79;60.49;100974.81;10308139;28;20234;-74
2021/04/18 00:49:51;;;;;;;16.92;9.30;;;;;;;6.68;60.91;100966.56;10306882;28;20230;-74
2021/04/18 00:54:53;;;;;;;14.55;9.43;;;;;;;6.54;61.21;100965.50;10307143;28;20238;-75
2021/04/18 00:59:58;;;;;;;14.13;8.13;;;;;;;6.40;61.63;100957.38;10307525;28;20250;-74
2021/04/18 01:05:01;;;;;;;15.18;8.07;;;;;;;6.34;61.83;100961.25;10307430;28;20241;-74
2021/04/18 01:10:06;;;;;;;13.25;8.52;;;;;;;6.20;62.05;100958.47;10308683;28;20350;-75
2021/04/18 01:15:11;;;;;;;16.48;9.15;;;;;;;6.16;62.61;100959.56;10306587;28;20609;-74
2021/04/18 01:20:16;;;;;;;15.48;8.50;;;;;;;5.86;63.22;100943.38;10307405;28;20427;-75
2021/04/18 01:25:20;;;;;;;13.57;7.55;;;;;;;5.71;63.59;100956.59;10282914;28;20266;-74
2021/04/18 01:30:30;;;;;;;15.23;7.85;;;;;;;5.74;63.37;100950.22;10265864;28;20386;-74
2021/04/18 01:35:32;;;;;;;12.40;8.18;;;;;;;5.89;62.98;100954.75;10266836;28;20739;-75
2021/04/18 01:40:35;;;;;;;17.35;8.60;;;;;;;5.99;62.75;100951.63;10265453;28;20239;-74
2021/04/18 01:45:37;;;;;;;14.27;8.52;;;;;;;6.07;62.52;100955.59;10265474;28;20236;-74
2021/04/18 01:50:41;;;;;;;13.40;7.93;;;;;;;6.04;62.30;100952.22;10267180;28;21423;-74
2021/04/18 01:55:45;;;;;;;11.93;7.72;;;;;;;5.99;62.35;100952.47;10281411;28;20242;-75
2021/04/18 02:00:48;;;;;;;13.30;8.13;;;;;;;5.95;62.23;100956.22;10269469;28;20234;-74
2021/04/18 02:05:50;;;;;;;15.05;8.43;;;;;;;5.90;62.20;100951.16;10270699;28;20238;-73
2021/04/18 02:10:59;;;;;;;14.18;8.88;;;;;;;5.82;62.35;100949.84;10287119;28;20704;-74
2021/04/18 02:16:03;;;;;;;14.15;9.27;;;;;;;5.66;62.57;100942.63;10287822;28;21355;-74
2021/04/18 02:21:09;;;;;;;17.58;8.57;;;;;;;5.46;63.36;100953.47;10288077;28;20267;-74
2021/04/18 02:26:12;;;;;;;20.23;8.90;;;;;;;5.36;63.38;100954.84;10272112;28;20240;-74
2021/04/18 02:31:18;;;;;;;17.77;8.90;;;;;;;5.42;63.50;100963.38;10287635;28;20274;-75
2021/04/18 02:36:21;;;;;;;12.85;8.48;;;;;;;5.51;63.33;100962.06;10286591;28;20247;-74
2021/04/18 02:41:25;;;;;;;16.00;8.75;;;;;;;5.55;63.13;100957.44;10285761;28;20240;-74
2021/04/18 02:46:27;;;;;;;15.23;9.32;;;;;;;5.52;63.18;100937.16;10270582;28;20243;-74
2021/04/18 02:51:30;;;;;;;15.40;8.98;;;;;;;5.31;63.66;100940.91;10271103;28;20601;-74
2021/04/18 02:56:33;;;;;;;17.23;9.65;;;;;;;5.44;63.60;100929.53;10276343;28;20270;-75
2021/04/18 03:01:40;;;;;;;16.40;9.83;;;;;;;5.46;63.43;100926.81;10286101;28;20326;-74
2021/04/18 03:06:43;;;;;;;17.47;9.00;;;;;;;5.20;64.26;100936.09;10272379;28;20240;-74
2021/04/18 03:11:46;;;;;;;17.25;9.05;;;;;;;5.32;64.32;100939.94;10285056;28;20231;-74
2021/04/18 03:17:05;;;;;;;16.65;9.80;;;;;;;5.63;63.73;100942.78;10287695;28;20450;-75
2021/04/18 03:22:19;;;;;;;18.67;9.45;;;;;;;5.58;63.17;100936.81;10287552;28;20263;-74
2021/04/18 03:27:22;;;;;;;17.70;9.82;;;;;;;5.50;63.46;100920.38;10269870;28;22090;-74
2021/04/18 03:32:29;;;;;;;16.65;9.55;;;;;;;5.30;64.26;100924.06;10269057;28;20274;-74
2021/04/18 03:37:34;;;;;;;16.70;8.85;;;;;;;5.32;64.45;100921.28;10272266;28;20231;-74
2021/04/18 03:42:37;;;;;;;13.53;8.93;;;;;;;5.47;64.30;100928.53;10283141;28;20274;-74
2021/04/18 03:47:43;;;;;;;15.57;9.50;;;;;;;5.57;63.76;100918.22;10267481;28;20243;-75
2021/04/18 03:52:47;;;;;;;16.95;9.95;;;;;;;5.78;63.67;100918.94;10268908;28;20680;-74
2021/04/18 03:57:52;;;;;;;14.55;8.82;;;;;;;5.87;64.20;100918.44;10285631;28;20247;-74
2021/04/18 04:02:56;;;;;;;17.45;10.07;;;;;;;5.88;64.29;100920.19;10272258;28;20299;-74
2021/04/18 04:08:00;;;;;;;19.83;10.60;;;;;;;5.71;64.11;100923.72;10269127;28;21364;-74
2021/04/18 04:13:04;;;;;;;17.00;9.98;;;;;;;5.65;65.60;100930.25;10266423;28;20244;-74
2021/04/18 04:18:08;;;;;;;16.33;10.32;;;;;;;5.73;67.65;100943.16;10283332;28;20242;-76
2021/04/18 04:23:28;;;;;;;19.48;10.57;;;;;;;5.75;68.50;100940.41;10267616;28;20231;-74
2021/04/18 04:28:31;;;;;;;17.25;10.32;;;;;;;5.71;68.48;100934.41;10268170;28;20907;-74
2021/04/18 04:33:34;;;;;;;21.77;11.02;;;;;;;5.63;68.32;100958.78;10267337;28;20266;-74
2021/04/18 04:38:38;;;;;;;20.67;11.18;;;;;;;5.72;68.74;100954.78;10268824;28;20239;-74
2021/04/18 04:43:41;;;;;;;18.40;11.43;;;;;;;5.78;68.52;100950.91;10268522;28;20251;-74
2021/04/18 04:48:42;;;;;;;18.15;11.10;;;;;;;5.77;67.53;100951.88;10267184;28;20239;-75
2021/04/18 04:53:44;;;;;;;18.38;10.85;;;;;;;5.80;67.01;100951.72;10267072;28;20549;-74
2021/04/18 04:58:47;;;;;;;18.83;10.77;;;;;;;5.81;66.63;100959.63;10281931;28;20240;-74
2021/04/18 05:03:49;;;;;;;18.70;11.70;;;;;;;5.83;65.80;100955.06;10266487;28;20235;-74
2021/04/18 05:08:52;;;;;;;21.40;11.98;;;;;;;5.77;65.79;100952.72;10269480;28;20251;-74
2021/04/18 05:13:55;;;;;;;17.05;11.05;;;;;;;5.69;66.09;100969.13;10276238;28;20238;-74
2021/04/18 05:18:57;;;;;;;15.70;10.52;;;;;;;5.84;65.77;100972.81;10308174;28;20235;-74
2021/04/18 05:23:59;;;;;;;16.25;11.18;;;;;;;5.91;65.12;100976.00;10308692;28;20238;-74
2021/04/18 05:29:02;;;;;;;18.67;10.75;;;;;;;5.83;65.08;100971.06;10304671;28;20234;-74
2021/04/18 05:34:04;;;;;;;21.05;10.98;;;;;;;5.70;65.71;100978.84;10307730;28;20286;-76
2021/04/18 05:39:08;;;;;;;16.27;10.05;;;;;;;5.58;66.22;100967.94;10313371;28;21488;-74
2021/04/18 05:44:14;;;;;;;19.30;11.25;;;;;;;5.69;67.04;100962.94;10312921;28;20257;-74
2021/04/18 05:49:16;;;;;;;21.75;11.95;;;;;;;5.91;66.23;100960.00;10316142;28;20243;-73
2021/04/18 05:54:18;;;;;;;19.42;11.30;;;;;;;6.02;65.76;100946.97;10313284;28;20235;-74
2021/04/18 05:59:20;;;;;;;20.00;11.60;;;;;;;6.13;65.15;100952.59;10315305;28;20262;-74
2021/04/18 06:04:23;;;;;;;20.88;11.05;;;;;;;6.55;64.27;100956.53;10314866;28;20235;-74
2021/04/18 06:09:25;;;;;;;18.25;11.25;;;;;;;6.83;62.44;100952.34;10312572;28;20818;-74
2021/04/18 06:14:28;;;;;;;19.58;10.77;;;;;;;6.93;62.63;100955.38;10313255;28;20653;-74
2021/04/18 06:19:30;;;;;;;24.55;11.77;;;;;;;7.28;60.87;100951.53;10315426;28;20716;-74
2021/04/18 06:24:32;;;;;;;18.58;10.70;;;;;;;7.30;60.44;100943.44;10323049;28;20365;-73
2021/04/18 06:29:35;;;;;;;16.58;10.38;;;;;;;7.66;60.03;100958.25;10315192;28;20908;-74
2021/04/18 06:34:37;;;;;;;19.67;10.13;;;;;;;8.20;59.00;100950.50;10273540;28;20302;-75
2021/04/18 06:39:39;;;;;;;18.75;10.50;;;;;;;8.72;55.75;100952.59;10273912;28;20242;-75
2021/04/18 06:44:42;;;;;;;15.00;9.82;;;;;;;8.50;55.09;100962.94;10272217;28;20747;-75
2021/04/18 06:49:44;;;;;;;14.65;10.00;;;;;;;8.71;55.14;100958.03;10274500;28;20240;-76
2021/04/18 06:54:46;;;;;;;6.25;4.97;;;;;;;8.85;55.35;100947.28;10274193;28;20242;-76
2021/04/18 06:59:49;;;;;;;13.80;9.85;;;;;;;9.49;53.71;100940.34;10272547;28;21476;-78
2021/04/18 07:04:59;;;;;;;13.18;8.23;;;;;;;9.65;52.39;100950.91;10270380;28;20227;-76
2021/04/18 07:10:01;;;;;;;15.00;10.00;;;;;;;9.97;52.77;100947.84;10270914;28;20231;-76
2021/04/18 07:15:05;;;;;;;15.73;9.00;;;;;;;10.68;50.54;100940.16;10252211;28;20236;-75
2021/04/18 07:20:10;;;;;;;13.88;8.05;;;;;;;10.79;49.70;100935.69;10270480;28;20259;-75
2021/04/18 07:25:13;;;;;;;13.65;8.90;;;;;;;11.26;49.61;100935.88;10284420;28;21406;-74
2021/04/18 07:30:18;;;;;;;13.27;9.15;;;;;;;11.54;48.39;100931.94;10308754;28;20239;-73
2021/04/18 07:35:37;;;;;;;15.73;9.23;;;;;;;11.77;48.20;100940.09;10313366;28;20254;-74
2021/04/18 07:40:39;;;;;;;14.68;8.32;;;;;;;11.53;47.85;100935.59;10270132;28;20242;-74
2021/04/18 07:45:43;;;;;;;12.93;8.68;;;;;;;12.16;47.60;100925.31;10252628;28;20243;-75
2021/04/18 07:50:47;;;;;;;15.02;9.57;;;;;;;11.58;47.76;100935.25;10259092;28;21794;-75
2021/04/18 07:55:50;;;;;;;15.93;9.25;;;;;;;11.68;48.43;100934.44;10275634;28;20233;-75
2021/04/18 08:00:53;;;;;;;11.07;8.23;;;;;;;11.27;49.21;100927.69;10250244;28;20237;-75
2021/04/18 08:05:55;;;;;;;15.52;8.63;;;;;;;11.64;48.84;100924.88;10259852;28;20251;-75
2021/04/18 08:11:10;;;;;;;14.25;8.27;;;;;;;11.86;47.84;100920.53;10267240;28;20228;-75
2021/04/18 08:16:13;;;;;;;13.50;8.93;;;;;;;12.30;47.38;100924.25;10317490;28;20242;-77
2021/04/18 08:21:27;;;;;;;16.95;9.13;;;;;;;13.42;46.49;100920.50;10327245;28;20241;-75
2021/04/18 08:26:31;;;;;;;12.02;8.02;;;;;;;13.76;45.48;100913.03;10347492;28;20324;-74
2021/04/18 08:31:54;;;;;;;13.30;8.63;;;;;;;13.51;44.79;100918.84;10309462;28;20234;-75
2021/04/18 08:37:00;;;;;;;14.10;8.63;;;;;;;13.28;45.59;100930.56;10257812;28;20242;-75
2021/04/18 08:42:05;;;;;;;11.30;8.57;;;;;;;13.53;45.01;100923.13;10268329;28;20332;-75
2021/04/18 08:47:10;;;;;;;11.77;7.95;;;;;;;15.04;43.04;100935.06;10251074;28;20239;-75
2021/04/18 08:52:16;;;;;;;13.73;8.40;;;;;;;13.80;42.75;100925.31;10269708;28;20902;-75
2021/04/18 08:57:19;;;;;;;12.50;8.05;;;;;;;12.93;45.29;100938.03;10270123;28;20232;-75
2021/04/18 09:02:23;;;;;;;13.13;8.48;;;;;;;14.44;43.11;100928.78;10268723;28;21826;-75
2021/04/18 09:07:28;;;;;;;14.45;8.60;;;;;;;14.67;42.91;100922.16;10267664;28;20251;-75
2021/04/18 09:12:35;;;;;;;14.43;8.02;;;;;;;13.52;44.77;100926.81;10267862;28;20262;-75
2021/04/18 09:17:38;;;;;;;12.18;8.70;;;;;;;12.92;46.45;100934.50;10341393;28;20248;-75
2021/04/18 09:22:41;;;;;;;17.58;9.05;;;;;;;14.18;44.47;100931.94;10352158;28;20234;-75
2021/04/18 09:27:45;;;;;;;13.38;9.35;;;;;;;14.76;44.69;100925.91;10348959;28;20246;-75
2021/04/18 09:32:49;;;;;;;15.35;9.38;;;;;;;16.96;40.70;100924.94;10347946;28;20256;-75
2021/04/18 09:37:54;;;;;;;12.30;8.63;;;;;;;17.98;37.92;100915.53;10348623;28;20675;-75
2021/04/18 09:42:56;;;;;;;11.35;8.45;;;;;;;17.48;37.51;100920.56;10347542;28;20238;-75
2021/04/18 09:48:11;;;;;;;13.95;8.73;;;;;;;17.19;38.51;100907.22;10349552;28;20234;-74
2021/04/18 09:53:18;;;;;;;13.82;9.05;;;;;;;18.05;37.21;100909.31;10312936;28;20238;-75
2021/04/18 09:58:31;;;;;;;14.45;7.82;;;;;;;17.79;37.70;100916.56;10293125;28;20240;-75
2021/04/18 10:03:38;;;;;;;14.43;8.48;;;;;;;17.84;37.80;100925.94;10267886;28;20797;-76
2021/04/18 10:08:52;;;;;;;11.88;8.20;;;;;;;18.46;37.95;100914.97;10266910;28;20240;-76
2021/04/18 10:13:56;;;;;;;11.50;8.07;;;;;;;17.80;38.42;100913.72;10232527;28;20339;-76
2021/04/18 10:19:10;;;;;;;11.82;8.18;;;;;;;17.56;37.75;100916.22;10266307;28;20785;-76
2021/04/18 10:24:32;;;;;;;11.65;8.80;;;;;;;16.69;40.52;100918.53;10272054;28;20317;-76
2021/04/18 10:29:35;;;;;;;13.45;8.57;;;;;;;17.29;39.86;100911.75;10289265;28;20237;-76
2021/04/18 10:34:38;;;;;;;13.63;9.23;;;;;;;17.24;38.76;100910.34;10273115;28;20607;-75
2021/04/18 10:39:40;;;;;;;11.60;9.57;;;;;;;17.02;39.54;100898.03;10272096;28;20231;-75
2021/04/18 10:44:42;;;;;;;16.08;8.88;;;;;;;18.70;38.27;100892.41;10272013;28;20232;-75
2021/04/18 10:49:47;;;;;;;11.85;7.57;;;;;;;18.32;37.96;100891.97;10287836;28;20247;-75
2021/04/18 10:54:49;;;;;;;13.52;8.60;;;;;;;18.14;38.60;100878.44;10271593;28;20322;-75
2021/04/18 10:59:51;;;;;;;12.98;8.38;;;;;;;18.72;36.61;100865.06;10278943;28;20239;-75
2021/04/18 11:04:53;;;;;;;12.57;7.35;;;;;;;19.36;37.07;100874.38;10279804;28;20238;-76
2021/04/18 11:09:55;;;;;;;11.68;7.35;;;;;;;20.08;35.13;100871.75;10270966;28;20243;-76
2021/04/18 11:14:57;;;;;;;9.75;7.82;;;;;;;20.29;35.52;100864.84;10286000;28;20242;-77
2021/04/18 11:20:00;;;;;;;13.45;8.48;;;;;;;19.79;35.70;100869.59;10310984;28;20231;-77
2021/04/18 11:25:04;;;;;;;11.20;8.30;;;;;;;19.35;36.70;100864.47;10309701;28;20272;-76
2021/04/18 11:30:11;;;;;;;12.50;8.60;;;;;;;20.67;34.97;100868.59;10309621;28;20242;-76
2021/04/18 11:35:15;;;;;;;15.80;9.15;;;;;;;20.72;33.43;100868.09;10313306;28;20239;-75
2021/04/18 11:40:23;;;;;;;12.65;9.45;;;;;;;22.13;33.75;100859.38;10311432;28;20861;-77
2021/04/18 11:45:25;;;;;;;14.65;8.88;;;;;;;22.38;31.83;100857.22;10309392;28;20735;-76
2021/04/18 11:50:28;;;;;;;11.13;8.52;;;;;;;19.86;35.56;100856.13;10310055;28;20241;-75
2021/04/18 11:55:30;;;;;;;11.55;8.65;;;;;;;18.49;37.69;100860.22;10307671;28;20235;-76
2021/04/18 12:00:32;;;;;;;13.55;8.98;;;;;;;19.19;38.44;100861.75;10309760;28;20248;-76
2021/04/18 12:05:35;;;;;;;12.18;8.88;;;;;;;19.52;36.55;100848.97;10309133;28;20246;-75
2021/04/18 12:10:37;;;;;;;12.48;8.48;;;;;;;18.73;38.43;100854.03;10309511;28;20724;-75
2021/04/18 12:15:39;;;;;;;11.57;8.38;;;;;;;19.34;38.11;100848.31;10305541;28;20645;-75
2021/04/18 12:20:42;;;;;;;12.82;9.00;;;;;;;20.55;35.71;100848.22;10269666;28;20751;-76
2021/04/18 12:25:44;;;;;;;12.13;8.50;;;;;;;20.26;35.48;100844.22;10282410;28;20247;-75
2021/04/18 12:30:46;;;;;;;13.75;8.40;;;;;;;19.20;36.70;100850.72;10267705;28;20282;-75
2021/04/18 12:35:49;;;;;;;10.57;8.38;;;;;;;18.15;39.29;100846.66;10268141;28;20243;-76
2021/04/18 12:40:51;;;;;;;14.05;8.60;;;;;;;17.54;40.37;100839.47;10268563;28;20234;-77
2021/04/18 12:45:53;;;;;;;13.13;9.27;;;;;;;17.89;40.36;100847.50;10266632;28;20232;-75
2021/04/18 12:50:57;;;;;;;12.38;8.82;;;;;;;17.60;40.95;100852.41;10270309;28;20242;-75
2021/04/18 12:56:00;;;;;;;12.95;9.35;;;;;;;17.17;41.75;100854.13;10267920;28;20239;-75
2021/04/18 13:01:02;;;;;;;12.98;9.10;;;;;;;18.28;41.12;100847.06;10266736;28;20236;-75
2021/04/18 13:06:05;;;;;;;11.07;8.93;;;;;;;21.34;34.54;100837.13;10266826;28;20246;-75
2021/04/18 13:11:07;;;;;;;15.35;9.85;;;;;;;20.46;36.16;100846.53;10281326;28;20251;-75
2021/04/18 13:16:09;;;;;;;11.45;8.60;;;;;;;21.43;34.07;100836.00;10291493;28;20247;-74
2021/04/18 13:21:14;;;;;;;12.68;8.50;;;;;;;20.83;35.36;100839.53;10306275;28;20235;-75
2021/04/18 13:26:16;;;;;;;10.88;8.52;;;;;;;21.19;35.65;100837.06;10306807;28;20246;-75
2021/04/18 13:31:19;;;;;;;10.75;8.52;;;;;;;22.83;32.11;100825.13;10306724;28;20231;-75
2021/04/18 13:36:22;;;;;;;11.15;8.10;;;;;;;21.40;33.20;100822.72;10302078;28;20356;-75
2021/04/18 13:41:24;;;;;;;11.68;8.82;;;;;;;20.41;35.31;100819.81;10260526;28;20243;-75
2021/04/18 13:46:26;;;;;;;11.52;8.45;;;;;;;19.95;35.76;100822.34;10306604;28;21098;-75
2021/04/18 13:51:29;;;;;;;10.05;9.02;;;;;;;20.92;34.84;100824.78;10306394;28;20231;-74
2021/04/18 13:56:31;;;;;;;12.18;9.40;;;;;;;21.98;34.02;100812.91;10266713;28;20239;-75
2021/04/18 14:01:34;;;;;;;8.98;8.05;;;;;;;22.23;33.22;100815.34;10278352;28;20227;-75
2021/04/18 14:06:37;;;;;;;9.65;7.28;;;;;;;23.55;31.14;100799.44;10276760;28;21233;-75
2021/04/18 14:11:39;;;;;;;12.75;9.07;;;;;;;23.27;31.16;100795.84;10277058;28;20312;-74
2021/04/18 14:16:41;;;;;;;11.13;9.63;;;;;;;21.89;33.26;100795.75;10268883;28;20243;-75
2021/04/18 14:21:44;;;;;;;15.88;9.25;;;;;;;20.72;35.32;100794.38;10260870;28;20347;-75
2021/04/18 14:26:46;;;;;;;15.25;9.95;;;;;;;22.48;32.94;100781.16;10245098;28;20724;-76
2021/04/18 14:31:48;;;;;;;11.02;8.23;;;;;;;21.58;33.23;100784.94;10278602;28;20227;-75
2021/04/18 14:36:51;;;;;;;10.60;7.53;;;;;;;22.41;31.15;100776.63;10276222;28;20634;-75
2021/04/18 14:41:53;;;;;;;10.15;8.13;;;;;;;22.97;31.24;100769.44;10294052;28;20244;-75
2021/04/18 14:46:55;;;;;;;10.00;7.82;;;;;;;22.18;31.53;100755.72;10297341;28;20801;-74
2021/04/18 14:52:00;;;;;;;11.45;8.70;;;;;;;20.76;34.33;100762.94;10293725;28;20238;-75
2021/04/18 14:57:02;;;;;;;10.63;7.20;;;;;;;19.77;35.99;100762.59;10277195;28;21425;-76
2021/04/18 15:02:04;;;;;;;10.05;6.85;;;;;;;19.54;35.86;100759.75;10271033;28;20251;-74
2021/04/18 15:07:07;;;;;;;8.93;6.50;;;;;;;19.54;35.69;100762.47;10234154;28;20315;-76
2021/04/18 15:12:09;;;;;;;9.38;6.28;;;;;;;19.53;35.31;100759.91;10233369;28;20618;-74
2021/04/18 15:17:11;;;;;;;8.73;6.38;;;;;;;19.73;34.87;100763.16;10283096;28;20797;-75
2021/04/18 15:22:16;;;;;;;7.50;6.68;;;;;;;19.74;35.63;100757.50;10308613;28;20266;-74
2021/04/18 15:27:18;;;;;;;7.93;6.38;;;;;;;19.29;35.79;100752.66;10311496;28;20235;-77
2021/04/18 15:32:20;;;;;;;11.05;7.22;;;;;;;18.68;36.83;100746.69;10305746;28;20231;-76
2021/04/18 15:37:23;;;;;;;10.43;6.88;;;;;;;18.90;37.33;100740.63;10260444;28;20258;-75
2021/04/18 15:42:26;;;;;;;13.50;9.65;;;;;;;19.18;36.14;100734.81;10283954;28;20606;-73
2021/04/18 15:47:28;;;;;;;10.50;6.93;;;;;;;19.05;36.69;100732.59;10290065;28;20235;-75
2021/04/18 15:52:31;;;;;;;11.13;7.47;;;;;;;19.19;37.18;100731.03;10259268;28;20821;-76
2021/04/18 15:57:33;;;;;;;11.32;7.50;;;;;;;19.24;37.45;100734.09;10281126;28;20256;-75
2021/04/18 16:02:35;;;;;;;10.38;7.25;;;;;;;18.80;37.94;100738.03;10266583;28;20314;-75
2021/04/18 16:07:39;;;;;;;10.38;7.10;;;;;;;18.43;38.31;100738.50;10272183;28;20234;-75
2021/04/18 16:12:42;;;;;;;12.43;7.15;;;;;;;18.49;38.23;100731.53;10280707;28;20235;-75
2021/04/18 16:17:44;;;;;;;10.00;7.03;;;;;;;18.80;37.66;100740.75;10250673;28;20238;-75
2021/04/18 16:22:47;;;;;;;10.80;8.13;;;;;;;18.17;39.62;100733.16;10279173;28;20322;-76
2021/04/18 16:27:49;;;;;;;10.45;6.53;;;;;;;17.62;39.74;100730.88;10257383;28;20239;-74
2021/04/18 16:32:51;;;;;;;8.75;6.93;;;;;;;17.47;40.18;100730.66;10256730;28;20290;-75
2021/04/18 16:37:58;;;;;;;8.60;7.03;;;;;;;17.40;40.02;100724.97;10272178;28;21031;-75
2021/04/18 16:43:00;;;;;;;11.50;6.80;;;;;;;17.07;41.01;100723.03;10306606;28;20318;-75
2021/04/18 16:48:03;;;;;;;8.50;6.40;;;;;;;16.88;41.20;100729.50;10307517;28;20361;-76
2021/04/18 16:53:06;;;;;;;11.48;6.70;;;;;;;16.75;41.33;100738.03;10306199;28;20313;-75
2021/04/18 16:58:08;;;;;;;8.63;6.05;;;;;;;16.66;41.01;100745.25;10300597;28;20250;-75
2021/04/18 17:03:10;;;;;;;7.38;5.57;;;;;;;16.52;41.03;100751.22;10280214;28;20246;-75
2021/04/18 17:08:17;;;;;;;9.57;6.53;;;;;;;16.27;41.90;100750.13;10278108;28;20248;-75
2021/04/18 17:13:19;;;;;;;11.45;7.35;;;;;;;16.05;42.67;100757.63;10268644;28;20461;-75
2021/04/18 17:18:23;;;;;;;9.63;7.28;;;;;;;15.79;42.92;100762.03;10262725;28;20241;-75
2021/04/18 17:23:26;;;;;;;10.85;7.07;;;;;;;15.53;43.54;100760.00;10263307;28;20235;-76
2021/04/18 17:28:28;;;;;;;9.43;6.63;;;;;;;15.41;43.92;100762.03;10259895;28;20243;-75
2021/04/18 17:33:30;;;;;;;9.35;6.88;;;;;;;15.27;44.96;100766.00;10264485;28;20235;-75
2021/04/18 17:38:33;;;;;;;10.27;7.50;;;;;;;15.11;44.97;100786.53;10266889;28;20250;-74
2021/04/18 17:43:36;;;;;;;9.60;5.68;;;;;;;13.73;51.50;100805.31;10263214;28;20238;-75
2021/04/18 17:48:38;;;;;;;7.18;5.13;;;;;;;13.08;54.41;100814.53;10265175;28;20321;-75
2021/04/18 17:53:42;;;;;;;7.90;5.38;;;;;;;12.44;58.69;100815.38;10264595;28;20239;-74
2021/04/18 17:58:44;;;;;;;9.88;6.28;;;;;;;12.00;67.17;100831.44;10264755;28;20239;-74
2021/04/18 18:03:47;;;;;;;8.95;7.10;;;;;;;11.20;73.08;100835.00;10280248;28;20241;-74
2021/04/18 18:08:50;;;;;;;10.93;7.18;;;;;;;10.83;75.32;100845.81;10274140;28;20240;-75
2021/04/18 18:13:52;;;;;;;11.27;7.97;;;;;;;10.68;76.86;100860.41;10271234;28;20238;-75
2021/04/18 18:18:54;;;;;;;15.45;8.27;;;;;;;10.77;78.64;100869.59;10305489;28;20706;-73
2021/04/18 18:23:56;;;;;;;17.20;10.20;;;;;;;10.78;78.87;100882.94;10304747;28;20354;-73
2021/04/18 18:28:59;;;;;;;15.10;9.65;;;;;;;10.69;79.70;100880.91;10305472;28;20250;-73
2021/04/18 18:34:01;;;;;;;15.25;9.15;;;;;;;10.78;80.06;100876.72;10304506;28;20246;-73
2021/04/18 18:39:06;;;;;;;14.13;8.55;;;;;;;10.53;79.43;100883.00;10283230;28;20239;-74
2021/04/18 18:44:08;;;;;;;16.05;9.32;;;;;;;10.43;80.30;100880.16;10284461;28;20255;-73
2021/04/18 18:49:10;;;;;;;13.70;9.00;;;;;;;10.56;80.61;100889.03;10299690;28;20235;-73
2021/04/18 18:54:12;;;;;;;19.75;11.63;;;;;;;10.59;80.79;100894.19;10311230;28;20327;-73
2021/04/18 18:59:14;;;;;;;17.48;10.30;;;;;;;10.51;80.73;100887.66;10311812;28;20239;-73
2021/04/18 19:04:16;;;;;;;13.60;9.30;;;;;;;10.44;81.00;100886.38;10286143;28;20732;-73
2021/04/18 19:09:19;;;;;;;14.65;8.63;;;;;;;10.48;80.79;100896.78;10273504;28;20243;-73
2021/04/18 19:14:24;;;;;;;12.27;8.93;;;;;;;10.47;80.86;100899.56;10288946;28;20243;-73
2021/04/18 19:19:27;;;;;;;12.00;8.45;;;;;;;10.46;80.96;100895.19;10310169;28;20251;-73
2021/04/18 19:24:29;;;;;;;12.40;8.60;;;;;;;10.48;80.97;100898.63;10310953;28;20242;-73
2021/04/18 19:29:32;;;;;;;10.52;7.70;;;;;;;10.44;80.74;100894.44;10299519;28;20243;-73
2021/04/18 19:34:34;;;;;;;10.15;7.97;;;;;;;10.43;80.81;100895.41;10285361;28;20254;-73
2021/04/18 19:39:37;;;;;;;12.65;8.57;;;;;;;10.43;81.05;100900.78;10268475;28;20240;-73
2021/04/18 19:44:39;;;;;;;12.52;8.50;;;;;;;10.44;80.95;100903.34;10271581;28;20242;-73
2021/04/18 19:49:41;;;;;;;13.38;8.10;;;;;;;10.43;81.10;100896.25;10269722;28;20716;-73
2021/04/18 19:54:44;;;;;;;13.80;9.45;;;;;;;10.46;81.16;100890.66;10266118;28;20236;-73
2021/04/18 19:59:46;;;;;;;13.70;10.30;;;;;;;10.55;81.14;100892.66;10266410;28;20236;-74
2021/04/18 20:04:47;;;;;;;13.48;9.02;;;;;;;10.44;80.74;100897.97;10287469;28;20234;-73
2021/04/18 20:09:50;;;;;;;15.80;9.85;;;;;;;10.42;80.94;100889.16;10291154;28;20241;-73
2021/04/18 20:14:52;;;;;;;13.90;9.82;;;;;;;10.47;80.44;100883.44;10285659;28;20247;-73
2021/04/18 20:19:54;;;;;;;14.13;9.85;;;;;;;10.46;80.90;100882.59;10270887;28;20232;-73
2021/04/18 20:24:57;;;;;;;16.23;10.85;;;;;;;10.50;80.90;100889.44;10270611;28;20231;-73
2021/04/18 20:29:59;;;;;;;15.20;10.00;;;;;;;10.54;80.87;100884.75;10270893;28;20236;-73
2021/04/18 20:35:01;;;;;;;18.02;11.18;;;;;;;10.53;80.74;100883.88;10267828;28;20235;-73
2021/04/18 20:40:05;;;;;;;17.73;11.98;;;;;;;10.47;80.69;100888.81;10268244;28;20235;-73
2021/04/18 20:45:09;;;;;;;22.90;14.18;;;;;;;10.37;80.83;100881.44;10269878;28;20247;-73
2021/04/18 20:50:12;;;;;;;21.60;13.25;;;;;;;10.33;80.20;100879.94;10272242;28;20238;-73
2021/04/18 20:55:16;;;;;;;21.33;12.75;;;;;;;10.26;80.45;100875.16;10297184;28;20618;-73
2021/04/18 21:00:25;;;;;;;20.67;13.48;;;;;;;10.14;80.20;100874.19;10276280;28;20617;-73
2021/04/18 21:05:27;;;;;;;19.75;12.52;;;;;;;10.11;80.57;100877.09;10282017;28;20606;-73
2021/04/18 21:10:30;;;;;;;20.23;12.38;;;;;;;10.12;80.96;100877.00;10265534;28;20712;-73
2021/04/18 21:15:32;;;;;;;17.88;12.85;;;;;;;10.11;80.78;100877.09;10284990;28;20617;-73
2021/04/18 21:20:35;;;;;;;20.77;12.82;;;;;;;10.06;80.78;100869.34;10312420;28;20274;-73
2021/04/18 21:25:38;;;;;;;18.63;13.35;;;;;;;10.03;80.68;100866.88;10307532;28;20242;-73
2021/04/18 21:30:40;;;;;;;20.02;13.85;;;;;;;9.95;80.47;100863.88;10307525;28;20246;-73
2021/04/18 21:35:42;;;;;;;21.90;13.82;;;;;;;10.00;80.84;100864.41;10301451;28;20239;-73
2021/04/18 21:40:46;;;;;;;21.25;15.15;;;;;;;10.04;80.86;100859.69;10269017;28;20235;-73
2021/04/18 21:45:48;;;;;;;21.48;16.10;;;;;;;10.02;80.63;100859.81;10274072;28;20234;-73
2021/04/18 21:50:51;;;;;;;23.88;15.30;;;;;;;9.93;80.81;100855.97;10307350;28;20358;-73
2021/04/18 21:55:54;;;;;;;25.42;15.80;;;;;;;9.86;80.88;100848.44;10309098;28;20742;-74
2021/04/18 22:00:55;;;;;;;24.90;17.95;;;;;;;9.96;80.53;100846.00;10308822;28;20612;-73
2021/04/18 22:05:58;;;;;;;24.20;17.20;;;;;;;9.96;80.74;100838.78;10306194;28;20231;-73
2021/04/18 22:11:00;;;;;;;27.65;17.17;;;;;;;9.89;80.80;100843.72;10308647;28;20238;-73
2021/04/18 22:16:03;;;;;;;24.02;17.80;;;;;;;9.84;80.73;100843.16;10306659;28;20249;-73
2021/04/18 22:21:05;;;;;;;26.02;17.10;;;;;;;9.86;80.85;100843.09;10312279;28;20231;-73
2021/04/18 22:26:08;;;;;;;26.58;17.58;;;;;;;9.83;80.67;100840.59;10313732;28;20235;-73
2021/04/18 22:31:09;;;;;;;29.63;17.20;;;;;;;9.85;81.10;100841.34;10312881;28;20234;-73
2021/04/18 22:36:12;;;;;;;27.60;16.98;;;;;;;9.80;80.85;100844.34;10310840;28;20242;-73
2021/04/18 22:41:14;;;;;;;27.02;16.45;;;;;;;9.71;81.09;100845.84;10311820;28;20241;-73
2021/04/18 22:46:16;;;;;;;28.02;17.60;;;;;;;9.57;81.40;100856.69;10309314;28;20231;-73
2021/04/18 22:51:18;;;;;;;27.88;17.63;;;;;;;9.31;81.99;100852.25;10311080;28;20238;-73
2021/04/18 22:56:21;;;;;;;27.98;16.88;;;;;;;9.06;82.79;100864.63;10313407;28;20624;-73
2021/04/18 23:01:23;;;;;;;27.83;15.07;;;;;;;8.82;83.23;100870.66;10314223;28;20250;-74
2021/04/18 23:06:25;;;;;;;29.65;16.08;;;;;;;8.74;83.80;100866.78;10310375;28;20370;-74